Time;durP1;ratioP1;P1;durP2;ratioP2;P2;SDS_P1;SDS_P2;PMS_P1;PMS_P2;Temp;Humidity;BMP_temperature;BMP_pressure;BME280_temperature;BME280_humidity;BME280_pressure;Samples;Min_cycle;Max_cycle;Signal;HPM_P1;HPM_P2
2023/10/08 00:01:55;;;;;;;4.83;3.20;;;;;;;;;;5054052;28;20422;-81
2023/10/08 00:04:23;;;;;;;4.40;2.80;;;;;;;;;;5054156;28;20460;-82
2023/10/08 00:06:52;;;;;;;5.13;2.97;;;;;;;;;;5053572;28;20454;-81
2023/10/08 00:09:20;;;;;;;4.13;2.97;;;;;;;;;;5053521;28;20987;-81
2023/10/08 00:11:51;;;;;;;4.37;2.57;;;;;;;;;;5051715;28;20456;-81
2023/10/08 00:14:21;;;;;;;2.70;2.50;;;;;;;;;;5053019;28;20454;-81
2023/10/08 00:16:49;;;;;;;7.67;2.60;;;;;;;;;;5053305;28;20808;-81
2023/10/08 00:19:17;;;;;;;3.43;2.23;;;;;;;;;;5053788;28;20451;-81
2023/10/08 00:21:47;;;;;;;2.17;2.00;;;;;;;;;;5053545;28;20461;-81
2023/10/08 00:24:14;;;;;;;3.80;2.07;;;;;;;;;;5053981;28;20442;-81
2023/10/08 00:26:41;;;;;;;4.17;2.10;;;;;;;;;;5053805;28;20419;-81
2023/10/08 00:29:15;;;;;;;7.47;2.37;;;;;;;;;;5052387;28;20456;-81
2023/10/08 00:31:44;;;;;;;4.10;2.53;;;;;;;;;;5051946;28;20414;-81
2023/10/08 00:34:11;;;;;;;4.13;2.47;;;;;;;;;;5053473;28;20465;-81
2023/10/08 00:36:37;;;;;;;3.30;2.03;;;;;;;;;;5053870;28;20523;-81
2023/10/08 00:39:09;;;;;;;6.50;2.87;;;;;;;;;;5052070;28;20795;-81
2023/10/08 00:41:38;;;;;;;4.97;2.67;;;;;;;;;;5052146;28;20447;-81
2023/10/08 00:44:08;;;;;;;6.17;2.70;;;;;;;;;;5052878;28;20483;-81
2023/10/08 00:46:42;;;;;;;4.50;2.43;;;;;;;;;;5054212;28;20423;-81
2023/10/08 00:49:24;;;;;;;2.90;2.60;;;;;;;;;;5052110;28;20451;-81
2023/10/08 00:52:00;;;;;;;5.30;4.20;;;;;;;;;;5053080;28;20476;-81
2023/10/08 00:54:32;;;;;;;4.70;2.83;;;;;;;;;;5053271;28;20889;-81
2023/10/08 00:57:03;;;;;;;3.97;3.00;;;;;;;;;;5052940;28;20399;-81
2023/10/08 00:59:33;;;;;;;6.67;3.50;;;;;;;;;;5053563;28;20423;-81
2023/10/08 01:02:06;;;;;;;3.37;3.07;;;;;;;;;;5054982;28;20768;-81
2023/10/08 01:04:34;;;;;;;7.90;4.20;;;;;;;;;;5055884;28;20438;-81
2023/10/08 01:07:10;;;;;;;5.43;4.00;;;;;;;;;;5056565;28;20446;-81
2023/10/08 01:09:39;;;;;;;6.00;4.00;;;;;;;;;;5057064;28;20918;-81
2023/10/08 01:12:15;;;;;;;4.37;3.40;;;;;;;;;;5055199;28;20435;-81
2023/10/08 01:14:43;;;;;;;4.40;4.00;;;;;;;;;;5056568;28;21125;-82
2023/10/08 01:17:12;;;;;;;5.30;4.20;;;;;;;;;;5056894;28;20509;-79
2023/10/08 01:19:40;;;;;;;8.80;4.97;;;;;;;;;;5055661;28;20447;-81
2023/10/08 01:22:08;;;;;;;6.07;4.27;;;;;;;;;;5057136;28;20496;-82
2023/10/08 01:24:36;;;;;;;9.00;4.40;;;;;;;;;;5056797;28;20492;-82
2023/10/08 01:27:04;;;;;;;4.20;3.50;;;;;;;;;;5056292;28;20422;-82
2023/10/08 01:29:31;;;;;;;5.70;4.37;;;;;;;;;;5057353;28;20430;-81
2023/10/08 01:31:58;;;;;;;8.47;3.87;;;;;;;;;;5056677;28;20447;-82
2023/10/08 01:34:30;;;;;;;9.07;4.67;;;;;;;;;;5056656;28;20454;-81
2023/10/08 01:37:03;;;;;;;5.17;3.30;;;;;;;;;;5056463;28;20406;-81
2023/10/08 01:39:32;;;;;;;5.33;3.83;;;;;;;;;;5056566;28;20466;-82
2023/10/08 01:41:58;;;;;;;4.37;3.97;;;;;;;;;;5055719;28;20934;-81
2023/10/08 01:44:25;;;;;;;7.43;4.00;;;;;;;;;;5056461;28;20422;-80
2023/10/08 01:46:52;;;;;;;4.07;3.30;;;;;;;;;;5054850;28;20826;-81
2023/10/08 01:49:22;;;;;;;4.30;3.90;;;;;;;;;;5055826;28;20423;-81
2023/10/08 01:51:49;;;;;;;8.33;3.97;;;;;;;;;;5055763;28;20451;-81
2023/10/08 01:54:17;;;;;;;4.83;4.27;;;;;;;;;;5056589;28;20458;-82
2023/10/08 01:56:45;;;;;;;5.17;3.93;;;;;;;;;;5056376;28;20451;-82
2023/10/08 01:59:13;;;;;;;13.17;4.60;;;;;;;;;;5061025;28;20414;-82
2023/10/08 02:01:40;;;;;;;6.47;4.47;;;;;;;;;;5061082;28;20526;-81
2023/10/08 02:04:08;;;;;;;7.30;4.23;;;;;;;;;;5081185;28;20430;-80
2023/10/08 02:06:35;;;;;;;6.60;4.37;;;;;;;;;;5078004;28;20453;-82
2023/10/08 02:09:07;;;;;;;7.90;4.17;;;;;;;;;;5056502;28;20843;-82
2023/10/08 02:11:41;;;;;;;4.13;3.73;;;;;;;;;;5059664;28;20424;-82
2023/10/08 02:14:09;;;;;;;10.00;4.80;;;;;;;;;;5056650;28;20483;-81
2023/10/08 02:16:35;;;;;;;7.80;4.27;;;;;;;;;;5056432;28;20447;-81
2023/10/08 02:19:01;;;;;;;9.20;4.43;;;;;;;;;;5057713;28;20446;-81
2023/10/08 02:21:28;;;;;;;5.93;4.10;;;;;;;;;;5059031;28;20411;-81
2023/10/08 02:23:54;;;;;;;8.33;4.93;;;;;;;;;;5056529;28;20475;-80
2023/10/08 02:26:20;;;;;;;11.33;5.87;;;;;;;;;;5056685;28;20437;-79
2023/10/08 02:28:47;;;;;;;13.53;7.40;;;;;;;;;;5055917;28;20467;-82
2023/10/08 02:31:14;;;;;;;13.07;7.10;;;;;;;;;;5056520;28;20436;-80
2023/10/08 02:33:41;;;;;;;17.33;8.37;;;;;;;;;;5055702;28;20818;-80
2023/10/08 02:36:09;;;;;;;12.17;8.50;;;;;;;;;;5055894;28;20414;-80
2023/10/08 02:38:37;;;;;;;13.40;8.03;;;;;;;;;;5054714;28;20443;-80
2023/10/08 02:41:06;;;;;;;11.10;6.97;;;;;;;;;;5055776;28;20841;-83
2023/10/08 02:43:34;;;;;;;11.90;6.47;;;;;;;;;;5054009;28;20849;-83
2023/10/08 02:46:00;;;;;;;12.03;7.27;;;;;;;;;;5055254;28;20444;-81
2023/10/08 02:48:29;;;;;;;12.00;6.93;;;;;;;;;;5054158;28;20522;-81
2023/10/08 02:51:06;;;;;;;8.77;5.97;;;;;;;;;;5054478;28;20421;-81
2023/10/08 02:53:33;;;;;;;8.90;5.20;;;;;;;;;;5054398;28;20479;-81
2023/10/08 02:55:59;;;;;;;9.80;4.93;;;;;;;;;;5053950;28;20414;-81
2023/10/08 02:58:27;;;;;;;9.50;5.10;;;;;;;;;;5054145;28;20453;-82
2023/10/08 03:00:54;;;;;;;9.90;5.20;;;;;;;;;;5054951;28;20425;-81
2023/10/08 03:03:22;;;;;;;6.53;4.50;;;;;;;;;;5054469;28;21021;-81
2023/10/08 03:05:50;;;;;;;15.00;5.43;;;;;;;;;;5055337;28;20440;-83
2023/10/08 03:08:21;;;;;;;8.23;5.17;;;;;;;;;;5054617;28;20496;-81
2023/10/08 03:10:48;;;;;;;6.30;4.50;;;;;;;;;;5054770;28;20812;-81
2023/10/08 03:13:19;;;;;;;7.90;5.33;;;;;;;;;;5054606;28;20558;-82
2023/10/08 03:16:05;;;;;;;8.70;4.87;;;;;;;;;;5053216;28;20450;-80
2023/10/08 03:18:35;;;;;;;12.47;4.60;;;;;;;;;;5055096;28;20810;-81
2023/10/08 03:21:04;;;;;;;7.20;4.00;;;;;;;;;;5053473;28;20448;-80
2023/10/08 03:23:34;;;;;;;7.30;4.40;;;;;;;;;;5053821;28;20475;-80
2023/10/08 03:26:09;;;;;;;6.03;4.27;;;;;;;;;;5054666;28;20418;-80
2023/10/08 03:28:36;;;;;;;7.23;4.63;;;;;;;;;;5054299;28;20441;-80
2023/10/08 03:31:05;;;;;;;7.53;3.70;;;;;;;;;;5053291;28;20446;-80
2023/10/08 03:33:34;;;;;;;7.60;4.70;;;;;;;;;;5054144;28;20474;-80
2023/10/08 03:36:08;;;;;;;6.43;4.93;;;;;;;;;;5054093;28;20440;-79
2023/10/08 03:38:50;;;;;;;12.73;5.27;;;;;;;;;;5054180;28;20451;-81
2023/10/08 03:41:17;;;;;;;11.03;4.53;;;;;;;;;;5054346;28;20898;-79
2023/10/08 03:43:52;;;;;;;11.10;4.63;;;;;;;;;;5053915;28;20575;-80
2023/10/08 03:46:21;;;;;;;11.70;5.00;;;;;;;;;;5054472;28;20403;-80
2023/10/08 03:48:47;;;;;;;7.63;4.30;;;;;;;;;;5052128;28;20508;-80
2023/10/08 03:51:19;;;;;;;9.57;5.30;;;;;;;;;;5052919;28;20468;-80
2023/10/08 03:53:58;;;;;;;6.17;4.50;;;;;;;;;;5054242;28;20830;-79
2023/10/08 03:56:25;;;;;;;7.53;3.90;;;;;;;;;;5055825;28;20395;-80
2023/10/08 03:58:53;;;;;;;7.93;4.93;;;;;;;;;;5053426;28;21010;-79
2023/10/08 04:01:24;;;;;;;5.57;4.50;;;;;;;;;;5054924;28;20437;-80
2023/10/08 04:03:58;;;;;;;11.13;4.60;;;;;;;;;;5054282;28;20472;-80
2023/10/08 04:06:30;;;;;;;8.10;4.20;;;;;;;;;;5054836;28;20420;-83
2023/10/08 04:09:11;;;;;;;11.60;4.93;;;;;;;;;;5055651;28;20482;-81
2023/10/08 04:11:51;;;;;;;9.47;5.00;;;;;;;;;;5055466;28;20426;-83
2023/10/08 04:14:18;;;;;;;9.57;4.70;;;;;;;;;;5054738;28;20458;-81
2023/10/08 04:16:45;;;;;;;10.03;5.67;;;;;;;;;;5054338;28;20414;-81
2023/10/08 04:19:12;;;;;;;15.63;4.90;;;;;;;;;;5053977;28;20419;-81
2023/10/08 04:21:42;;;;;;;7.10;4.13;;;;;;;;;;5054255;28;20930;-80
2023/10/08 04:24:11;;;;;;;8.90;5.23;;;;;;;;;;5053757;28;20431;-84
2023/10/08 04:26:40;;;;;;;8.97;5.53;;;;;;;;;;5053960;28;20426;-82
2023/10/08 04:29:08;;;;;;;8.73;4.50;;;;;;;;;;5052051;28;20456;-82
2023/10/08 04:31:43;;;;;;;10.57;5.30;;;;;;;;;;5054087;28;20813;-82
2023/10/08 04:34:15;;;;;;;7.93;4.37;;;;;;;;;;5053023;28;20434;-82
2023/10/08 04:36:45;;;;;;;19.13;4.20;;;;;;;;;;5055781;28;20414;-81
2023/10/08 04:39:15;;;;;;;7.00;4.40;;;;;;;;;;5057634;28;20954;-79
2023/10/08 04:41:43;;;;;;;8.67;4.90;;;;;;;;;;5057365;28;20410;-81
2023/10/08 04:44:14;;;;;;;9.17;4.40;;;;;;;;;;5057168;28;20474;-81
2023/10/08 04:46:49;;;;;;;7.00;3.97;;;;;;;;;;5056801;28;20873;-83
2023/10/08 04:49:28;;;;;;;9.33;5.83;;;;;;;;;;5057071;28;20880;-82
2023/10/08 04:51:58;;;;;;;11.97;5.30;;;;;;;;;;5056218;28;20443;-81
2023/10/08 04:54:29;;;;;;;12.93;6.00;;;;;;;;;;5057238;28;20490;-82
2023/10/08 04:56:57;;;;;;;12.80;6.77;;;;;;;;;;5057543;28;20446;-81
2023/10/08 04:59:31;;;;;;;18.70;7.80;;;;;;;;;;5057228;28;20870;-82
2023/10/08 05:02:12;;;;;;;22.67;10.97;;;;;;;;;;5056267;28;20425;-82
2023/10/08 05:04:55;;;;;;;14.77;8.50;;;;;;;;;;5055648;28;20434;-81
2023/10/08 05:07:40;;;;;;;13.93;8.30;;;;;;;;;;5056746;28;20463;-82
2023/10/08 05:10:18;;;;;;;15.03;10.30;;;;;;;;;;5057411;28;20407;-80
2023/10/08 05:12:50;;;;;;;19.37;11.70;;;;;;;;;;5057150;28;20519;-80
2023/10/08 05:15:32;;;;;;;23.00;13.27;;;;;;;;;;5057257;28;20458;-80
2023/10/08 05:18:13;;;;;;;17.67;9.83;;;;;;;;;;5056735;28;20491;-80
2023/10/08 05:20:59;;;;;;;18.17;10.30;;;;;;;;;;5056561;28;20458;-81
2023/10/08 05:26:20;;;;;;;16.60;7.80;;;;;;;;;;5056280;28;20750;-81
2023/10/08 05:28:47;;;;;;;13.60;6.73;;;;;;;;;;5055667;28;20468;-80
2023/10/08 05:31:36;;;;;;;10.60;5.93;;;;;;;;;;5056403;28;20472;-81
2023/10/08 05:34:17;;;;;;;10.60;5.30;;;;;;;;;;5055769;28;20472;-81
2023/10/08 05:39:42;;;;;;;9.37;4.70;;;;;;;;;;5055552;28;20415;-80
2023/10/08 05:42:14;;;;;;;7.20;4.57;;;;;;;;;;5055824;28;20436;-80
2023/10/08 05:44:45;;;;;;;10.33;4.40;;;;;;;;;;5055548;28;20944;-80
2023/10/08 05:47:28;;;;;;;9.50;5.07;;;;;;;;;;5054816;28;20551;-80
2023/10/08 05:50:28;;;;;;;11.23;5.37;;;;;;;;;;5056249;28;20424;-80
2023/10/08 05:52:50;;;;;;;8.87;4.10;;;;;;;;;;5055388;28;20496;-80
2023/10/08 05:55:25;;;;;;;7.10;4.67;;;;;;;;;;5055332;28;21065;-80
2023/10/08 05:58:02;;;;;;;9.60;4.90;;;;;;;;;;5055615;28;20467;-81
2023/10/08 06:03:36;;;;;;;8.60;5.80;;;;;;;;;;5036488;28;20569;-80
2023/10/08 06:09:05;;;;;;;11.33;6.70;;;;;;;;;;5011581;28;20432;-81
2023/10/08 06:11:41;;;;;;;8.90;6.63;;;;;;;;;;5010764;28;20437;-82
2023/10/08 06:14:16;;;;;;;9.13;6.60;;;;;;;;;;5011122;28;20576;-82
2023/10/08 06:16:43;;;;;;;14.90;7.87;;;;;;;;;;5011091;28;20420;-81
2023/10/08 06:19:11;;;;;;;13.13;8.07;;;;;;;;;;5050585;28;20908;-80
2023/10/08 06:21:39;;;;;;;16.97;8.00;;;;;;;;;;5049363;28;20498;-81
2023/10/08 06:24:08;;;;;;;15.20;9.33;;;;;;;;;;5050229;28;20442;-80
2023/10/08 06:26:38;;;;;;;11.07;6.70;;;;;;;;;;5050972;28;20454;-81
2023/10/08 06:29:18;;;;;;;9.27;7.10;;;;;;;;;;5050649;28;20521;-81
2023/10/08 06:31:50;;;;;;;11.10;6.37;;;;;;;;;;5049981;28;20511;-81
2023/10/08 06:34:21;;;;;;;10.43;7.30;;;;;;;;;;5049398;28;20490;-81
2023/10/08 06:36:47;;;;;;;19.87;8.67;;;;;;;;;;5049960;28;20479;-81
2023/10/08 06:39:18;;;;;;;21.70;10.93;;;;;;;;;;5050221;28;20436;-81
2023/10/08 06:41:48;;;;;;;15.90;9.30;;;;;;;;;;5049983;28;20464;-81
2023/10/08 06:44:15;;;;;;;14.60;9.60;;;;;;;;;;5049249;28;20439;-81
2023/10/08 06:46:41;;;;;;;13.70;8.37;;;;;;;;;;5050074;28;20419;-82
2023/10/08 06:49:11;;;;;;;13.80;6.80;;;;;;;;;;5050495;28;20905;-80
2023/10/08 06:51:39;;;;;;;11.43;6.00;;;;;;;;;;5050327;28;20436;-80
2023/10/08 06:54:10;;;;;;;8.30;5.57;;;;;;;;;;5049990;28;20808;-80
2023/10/08 06:56:36;;;;;;;8.33;5.53;;;;;;;;;;5050213;28;20461;-81
2023/10/08 06:59:03;;;;;;;9.30;6.67;;;;;;;;;;5048186;28;20859;-81
2023/10/08 07:01:38;;;;;;;12.40;4.53;;;;;;;;;;5050100;28;20456;-81
2023/10/08 07:04:06;;;;;;;6.70;4.37;;;;;;;;;;5049340;28;20495;-82
2023/10/08 07:06:33;;;;;;;7.67;4.43;;;;;;;;;;5050405;28;20497;-82
2023/10/08 07:09:05;;;;;;;5.63;3.53;;;;;;;;;;5049939;28;20500;-82
2023/10/08 07:11:34;;;;;;;6.97;3.10;;;;;;;;;;5049665;28;20800;-80
2023/10/08 07:14:01;;;;;;;6.70;2.70;;;;;;;;;;5040223;28;20528;-80
2023/10/08 07:16:29;;;;;;;8.73;2.87;;;;;;;;;;5036590;28;20419;-80
2023/10/08 07:19:01;;;;;;;6.07;3.37;;;;;;;;;;5035900;28;21009;-80
2023/10/08 07:21:29;;;;;;;13.37;4.10;;;;;;;;;;5036178;28;20433;-79
2023/10/08 07:23:59;;;;;;;6.70;2.80;;;;;;;;;;5035870;28;20451;-82
2023/10/08 07:26:35;;;;;;;7.60;3.07;;;;;;;;;;5036377;28;20821;-80
2023/10/08 07:29:05;;;;;;;7.93;3.47;;;;;;;;;;5036213;28;20968;-79
2023/10/08 07:31:34;;;;;;;6.73;2.60;;;;;;;;;;5036395;28;20784;-80
2023/10/08 07:34:15;;;;;;;9.30;3.10;;;;;;;;;;5035732;28;20476;-81
2023/10/08 07:36:42;;;;;;;12.77;3.40;;;;;;;;;;5035655;28;20493;-81
2023/10/08 07:39:20;;;;;;;5.67;1.60;;;;;;;;;;5036418;28;20411;-79
2023/10/08 07:41:48;;;;;;;12.83;2.43;;;;;;;;;;5034733;28;20443;-81
2023/10/08 07:44:14;;;;;;;7.80;2.50;;;;;;;;;;5036257;28;20431;-79
2023/10/08 07:46:41;;;;;;;5.87;2.77;;;;;;;;;;5035439;28;20824;-81
2023/10/08 07:49:12;;;;;;;6.40;2.37;;;;;;;;;;5035436;28;20452;-80
2023/10/08 07:51:39;;;;;;;5.00;2.13;;;;;;;;;;5036125;28;20400;-80
2023/10/08 07:54:09;;;;;;;5.33;2.40;;;;;;;;;;5035020;28;20451;-79
2023/10/08 07:56:37;;;;;;;4.87;2.00;;;;;;;;;;5035955;28;20835;-79
2023/10/08 07:59:08;;;;;;;10.80;2.77;;;;;;;;;;5035823;28;20473;-79
2023/10/08 08:01:35;;;;;;;7.80;2.20;;;;;;;;;;5035128;28;20431;-85
2023/10/08 08:04:02;;;;;;;7.23;2.63;;;;;;;;;;5035398;28;20473;-79
2023/10/08 08:06:30;;;;;;;5.57;2.20;;;;;;;;;;5035618;28;20502;-81
2023/10/08 08:08:57;;;;;;;5.50;2.03;;;;;;;;;;5035097;28;20443;-81
2023/10/08 08:11:26;;;;;;;4.30;2.10;;;;;;;;;;5034381;28;20419;-80
2023/10/08 08:13:52;;;;;;;7.90;2.07;;;;;;;;;;5035088;28;20491;-81
2023/10/08 08:16:20;;;;;;;4.87;1.80;;;;;;;;;;5035661;28;20452;-81
2023/10/08 08:18:48;;;;;;;6.07;2.07;;;;;;;;;;5034746;28;20443;-80
2023/10/08 08:21:15;;;;;;;10.40;2.10;;;;;;;;;;5035073;28;20449;-81
2023/10/08 08:23:47;;;;;;;6.90;2.20;;;;;;;;;;5034842;28;21025;-81
2023/10/08 08:26:26;;;;;;;8.30;2.40;;;;;;;;;;5034268;28;20405;-82
2023/10/08 08:28:54;;;;;;;5.70;2.00;;;;;;;;;;5034888;28;20447;-82
2023/10/08 08:31:22;;;;;;;6.90;2.77;;;;;;;;;;5034078;28;20590;-80
2023/10/08 08:33:56;;;;;;;4.73;1.70;;;;;;;;;;5035044;28;20452;-82
2023/10/08 08:36:23;;;;;;;11.47;2.63;;;;;;;;;;5035340;28;20487;-81
2023/10/08 08:38:50;;;;;;;4.50;2.27;;;;;;;;;;5034471;28;20564;-81
2023/10/08 08:41:19;;;;;;;7.30;2.47;;;;;;;;;;5034789;28;20407;-81
2023/10/08 08:43:48;;;;;;;8.43;2.77;;;;;;;;;;5034885;28;20559;-82
2023/10/08 08:46:14;;;;;;;8.43;2.20;;;;;;;;;;5034942;28;20859;-82
2023/10/08 08:48:42;;;;;;;4.10;2.30;;;;;;;;;;5033121;28;20932;-80
2023/10/08 08:51:11;;;;;;;6.60;2.17;;;;;;;;;;5034966;28;20271;-79
2023/10/08 08:53:37;;;;;;;11.90;2.13;;;;;;;;;;5033437;28;20471;-79
2023/10/08 08:56:07;;;;;;;8.67;1.80;;;;;;;;;;5034507;28;20932;-79
2023/10/08 08:58:33;;;;;;;6.33;2.80;;;;;;;;;;5033987;28;20483;-79
2023/10/08 09:01:03;;;;;;;4.13;2.03;;;;;;;;;;5034237;28;20941;-81
2023/10/08 09:03:31;;;;;;;5.80;1.80;;;;;;;;;;5034292;28;20480;-81
2023/10/08 09:05:59;;;;;;;6.83;1.60;;;;;;;;;;5035306;28;20858;-81
2023/10/08 09:08:29;;;;;;;7.73;2.50;;;;;;;;;;5034941;28;20476;-81
2023/10/08 09:11:00;;;;;;;8.10;2.57;;;;;;;;;;5036144;28;20535;-81
2023/10/08 09:13:27;;;;;;;7.67;2.33;;;;;;;;;;5033500;28;20510;-80
2023/10/08 09:15:57;;;;;;;7.50;2.50;;;;;;;;;;5035211;28;20433;-81
2023/10/08 09:18:27;;;;;;;9.40;2.70;;;;;;;;;;5033403;28;20544;-80
2023/10/08 09:20:56;;;;;;;13.53;2.93;;;;;;;;;;5037826;28;20441;-81
2023/10/08 09:23:25;;;;;;;5.97;1.63;;;;;;;;;;5039137;28;20531;-83
2023/10/08 09:25:59;;;;;;;4.40;1.90;;;;;;;;;;5036318;28;20535;-81
2023/10/08 09:28:25;;;;;;;7.83;1.90;;;;;;;;;;5035163;28;20994;-81
2023/10/08 09:30:55;;;;;;;5.87;2.00;;;;;;;;;;5034724;28;20949;-82
2023/10/08 09:33:21;;;;;;;1.70;1.57;;;;;;;;;;5034653;28;20591;-81
2023/10/08 09:35:47;;;;;;;7.40;2.20;;;;;;;;;;5034264;28;20440;-81
2023/10/08 09:38:15;;;;;;;3.83;1.20;;;;;;;;;;5035401;28;20499;-79
2023/10/08 09:40:44;;;;;;;6.40;1.80;;;;;;;;;;5034138;28;20881;-81
2023/10/08 09:43:11;;;;;;;3.93;1.73;;;;;;;;;;5032614;28;20488;-80
2023/10/08 09:45:38;;;;;;;8.20;2.67;;;;;;;;;;5034103;28;20441;-82
2023/10/08 09:48:08;;;;;;;7.97;2.07;;;;;;;;;;5033434;28;20479;-82
2023/10/08 09:50:37;;;;;;;3.47;2.10;;;;;;;;;;5034429;28;20445;-81
2023/10/08 09:53:16;;;;;;;11.43;2.43;;;;;;;;;;5034000;28;20477;-81
2023/10/08 09:55:45;;;;;;;4.33;1.70;;;;;;;;;;5034507;28;20417;-80
2023/10/08 09:58:14;;;;;;;10.50;2.07;;;;;;;;;;5032792;28;20473;-80
2023/10/08 10:00:42;;;;;;;5.17;2.30;;;;;;;;;;5034887;28;20503;-81
2023/10/08 10:03:12;;;;;;;6.10;1.83;;;;;;;;;;5033988;28;20476;-80
2023/10/08 10:05:38;;;;;;;3.67;1.50;;;;;;;;;;5033275;28;20444;-80
2023/10/08 10:08:09;;;;;;;4.43;1.70;;;;;;;;;;5032642;28;20998;-81
2023/10/08 10:10:38;;;;;;;8.60;2.03;;;;;;;;;;5034262;28;20425;-80
2023/10/08 10:13:07;;;;;;;6.30;1.73;;;;;;;;;;5034077;28;20987;-80
2023/10/08 10:15:34;;;;;;;5.63;2.13;;;;;;;;;;5034260;28;20535;-81
2023/10/08 10:18:10;;;;;;;7.00;2.23;;;;;;;;;;5034099;28;20475;-81
2023/10/08 10:20:39;;;;;;;5.60;1.60;;;;;;;;;;5034534;28;20882;-80
2023/10/08 10:23:21;;;;;;;10.93;5.57;;;;;;;;;;5033488;28;20468;-81
2023/10/08 10:25:48;;;;;;;4.00;1.93;;;;;;;;;;5034600;28;20543;-82
2023/10/08 10:28:25;;;;;;;5.17;1.67;;;;;;;;;;5033146;28;20469;-82
2023/10/08 10:30:51;;;;;;;4.30;1.70;;;;;;;;;;5033324;28;20503;-80
2023/10/08 10:33:18;;;;;;;9.60;2.43;;;;;;;;;;5031914;28;20830;-81
2023/10/08 10:35:50;;;;;;;8.20;1.30;;;;;;;;;;5033586;28;20436;-80
2023/10/08 10:38:20;;;;;;;3.87;1.77;;;;;;;;;;5033559;28;20829;-81
2023/10/08 10:40:56;;;;;;;6.17;2.00;;;;;;;;;;5033947;28;20467;-81
2023/10/08 10:43:31;;;;;;;9.80;1.63;;;;;;;;;;5033479;28;20503;-80
2023/10/08 10:45:58;;;;;;;6.10;1.50;;;;;;;;;;5033546;28;20440;-80
2023/10/08 10:48:34;;;;;;;4.57;1.67;;;;;;;;;;5034262;28;20479;-80
2023/10/08 10:51:10;;;;;;;6.07;2.00;;;;;;;;;;5036664;28;20519;-80
2023/10/08 10:53:44;;;;;;;6.67;1.63;;;;;;;;;;5035808;28;21055;-82
2023/10/08 10:56:11;;;;;;;5.60;1.60;;;;;;;;;;5037096;28;20499;-81
2023/10/08 10:58:42;;;;;;;6.13;1.50;;;;;;;;;;5035579;28;20499;-81
2023/10/08 11:01:08;;;;;;;4.10;1.73;;;;;;;;;;5036902;28;20805;-81
2023/10/08 11:03:34;;;;;;;3.83;2.17;;;;;;;;;;5036487;28;20480;-81
2023/10/08 11:06:05;;;;;;;7.20;1.33;;;;;;;;;;5037396;28;20198;-81
2023/10/08 11:08:35;;;;;;;5.67;2.50;;;;;;;;;;5036936;28;20477;-81
2023/10/08 11:11:05;;;;;;;4.03;1.40;;;;;;;;;;5037309;28;20432;-79
2023/10/08 11:13:37;;;;;;;4.93;1.77;;;;;;;;;;5036429;28;20519;-80
2023/10/08 11:16:07;;;;;;;4.10;1.90;;;;;;;;;;5036056;28;20432;-80
2023/10/08 11:18:34;;;;;;;6.53;2.20;;;;;;;;;;5036234;28;20476;-80
2023/10/08 11:21:13;;;;;;;7.00;2.00;;;;;;;;;;5037136;28;20460;-80
2023/10/08 11:23:43;;;;;;;4.00;1.73;;;;;;;;;;5037109;28;20476;-82
2023/10/08 11:26:09;;;;;;;5.83;1.50;;;;;;;;;;5036898;28;20874;-82
2023/10/08 11:28:41;;;;;;;5.20;1.43;;;;;;;;;;5036841;28;20472;-82
2023/10/08 11:31:11;;;;;;;7.30;2.23;;;;;;;;;;5036578;28;20773;-82
2023/10/08 11:33:38;;;;;;;4.00;1.20;;;;;;;;;;5036457;28;20473;-82
2023/10/08 11:36:13;;;;;;;3.90;1.47;;;;;;;;;;5036534;28;20451;-82
2023/10/08 11:38:40;;;;;;;7.70;2.27;;;;;;;;;;5035106;28;20476;-83
2023/10/08 11:41:21;;;;;;;4.23;1.40;;;;;;;;;;5035979;28;20445;-82
2023/10/08 11:43:53;;;;;;;6.90;1.33;;;;;;;;;;5034864;28;20503;-82
2023/10/08 11:46:21;;;;;;;5.70;1.90;;;;;;;;;;5036306;28;20778;-82
2023/10/08 11:48:48;;;;;;;4.07;1.60;;;;;;;;;;5033465;28;20472;-82
2023/10/08 11:51:16;;;;;;;4.73;1.47;;;;;;;;;;5036356;28;20441;-83
2023/10/08 11:53:45;;;;;;;7.60;1.70;;;;;;;;;;5035540;28;20473;-83
2023/10/08 11:56:13;;;;;;;4.43;1.10;;;;;;;;;;5036189;28;20515;-82
2023/10/08 11:58:39;;;;;;;7.00;1.83;;;;;;;;;;5036173;28;20659;-83
2023/10/08 12:01:06;;;;;;;2.50;1.57;;;;;;;;;;5034649;28;20433;-83
2023/10/08 12:03:34;;;;;;;6.40;1.70;;;;;;;;;;5035443;28;20531;-83
2023/10/08 12:06:01;;;;;;;8.33;2.17;;;;;;;;;;5035963;28;20441;-83
2023/10/08 12:08:29;;;;;;;5.17;2.07;;;;;;;;;;5034314;28;20574;-83
2023/10/08 12:10:55;;;;;;;5.30;1.60;;;;;;;;;;5035950;28;20931;-84
2023/10/08 12:13:24;;;;;;;8.27;2.80;;;;;;;;;;5035643;28;20476;-82
2023/10/08 12:15:51;;;;;;;6.73;2.17;;;;;;;;;;5035745;28;20816;-81
2023/10/08 12:18:24;;;;;;;4.30;1.60;;;;;;;;;;5035593;28;20475;-81
2023/10/08 12:20:53;;;;;;;5.90;1.73;;;;;;;;;;5035387;28;20939;-82
2023/10/08 12:23:24;;;;;;;7.87;1.67;;;;;;;;;;5034955;28;20481;-82
2023/10/08 12:25:52;;;;;;;4.70;1.50;;;;;;;;;;5035680;28;20435;-82
2023/10/08 12:28:18;;;;;;;7.23;2.13;;;;;;;;;;5035160;28;20484;-82
2023/10/08 12:30:45;;;;;;;3.47;1.33;;;;;;;;;;5017713;28;20476;-82
2023/10/08 12:33:12;;;;;;;4.93;1.80;;;;;;;;;;5035004;28;20476;-82
2023/10/08 12:35:39;;;;;;;6.07;2.60;;;;;;;;;;5039727;28;20455;-83
2023/10/08 12:38:08;;;;;;;5.80;2.03;;;;;;;;;;5038766;28;20479;-82
2023/10/08 12:40:42;;;;;;;3.70;1.77;;;;;;;;;;5039073;28;20444;-83
2023/10/08 12:43:08;;;;;;;6.57;2.60;;;;;;;;;;5036994;28;20535;-81
2023/10/08 12:45:37;;;;;;;2.70;1.60;;;;;;;;;;5035578;28;20433;-80
2023/10/08 12:48:04;;;;;;;8.63;3.60;;;;;;;;;;5035784;28;20526;-81
2023/10/08 12:50:42;;;;;;;6.97;2.90;;;;;;;;;;5037055;28;20806;-82
2023/10/08 12:53:11;;;;;;;19.00;7.97;;;;;;;;;;5035654;28;21005;-82
2023/10/08 12:55:39;;;;;;;9.17;3.47;;;;;;;;;;5036332;28;20947;-83
2023/10/08 12:58:09;;;;;;;7.60;2.57;;;;;;;;;;5035912;28;20523;-82
2023/10/08 13:00:37;;;;;;;5.43;3.00;;;;;;;;;;5037911;28;20436;-82
2023/10/08 13:03:05;;;;;;;5.77;2.50;;;;;;;;;;5036422;28;20504;-81
2023/10/08 13:05:33;;;;;;;7.70;2.50;;;;;;;;;;5036107;28;20452;-82
2023/10/08 13:08:09;;;;;;;4.73;2.10;;;;;;;;;;5034616;28;20500;-83
2023/10/08 13:10:41;;;;;;;7.43;2.00;;;;;;;;;;5035092;28;20890;-79
2023/10/08 13:13:08;;;;;;;8.10;3.10;;;;;;;;;;5033728;28;20476;-81
2023/10/08 13:15:35;;;;;;;11.73;1.90;;;;;;;;;;5035689;28;20536;-79
2023/10/08 13:18:03;;;;;;;5.53;3.37;;;;;;;;;;5035075;28;20472;-80
2023/10/08 13:20:33;;;;;;;10.40;2.27;;;;;;;;;;5034830;28;20441;-80
2023/10/08 13:22:59;;;;;;;9.33;2.33;;;;;;;;;;5034103;28;20468;-81
2023/10/08 13:25:26;;;;;;;10.77;5.73;;;;;;;;;;5032541;28;20484;-81
2023/10/08 13:27:54;;;;;;;2.70;1.93;;;;;;;;;;5034296;28;20460;-78
2023/10/08 13:30:23;;;;;;;6.27;3.03;;;;;;;;;;5033520;28;20460;-82
2023/10/08 13:32:49;;;;;;;4.77;2.13;;;;;;;;;;5033842;28;20472;-80
2023/10/08 13:35:16;;;;;;;4.20;1.67;;;;;;;;;;5034125;28;20833;-80
2023/10/08 13:37:42;;;;;;;4.20;1.77;;;;;;;;;;5034082;28;20472;-81
2023/10/08 13:40:09;;;;;;;6.80;2.33;;;;;;;;;;5034407;28;20444;-81
2023/10/08 13:42:36;;;;;;;10.07;2.57;;;;;;;;;;5032279;28;20472;-81
2023/10/08 13:45:07;;;;;;;5.47;1.93;;;;;;;;;;5033994;28;20495;-81
2023/10/08 13:47:34;;;;;;;4.57;1.80;;;;;;;;;;5034091;28;20496;-81
2023/10/08 13:50:03;;;;;;;6.40;1.97;;;;;;;;;;5033898;28;20447;-81
2023/10/08 13:52:29;;;;;;;7.87;2.30;;;;;;;;;;5034122;28;20476;-82
2023/10/08 13:54:56;;;;;;;3.17;1.83;;;;;;;;;;5034517;28;20545;-80
2023/10/08 13:57:26;;;;;;;10.87;2.33;;;;;;;;;;5035711;28;20480;-82
2023/10/08 13:59:53;;;;;;;6.67;1.80;;;;;;;;;;5034429;28;20432;-81
2023/10/08 14:02:21;;;;;;;5.60;1.90;;;;;;;;;;5033792;28;20552;-81
2023/10/08 14:04:50;;;;;;;3.67;1.70;;;;;;;;;;5033874;28;20523;-81
2023/10/08 14:07:17;;;;;;;7.27;1.80;;;;;;;;;;5033855;28;20487;-82
2023/10/08 14:09:45;;;;;;;9.83;2.43;;;;;;;;;;5033825;28;20932;-81
2023/10/08 14:12:13;;;;;;;6.27;2.23;;;;;;;;;;5033500;28;20467;-81
2023/10/08 14:14:43;;;;;;;5.03;1.80;;;;;;;;;;5032985;28;20515;-80
2023/10/08 14:17:14;;;;;;;9.50;2.57;;;;;;;;;;5036660;28;20468;-80
2023/10/08 14:19:51;;;;;;;4.57;1.77;;;;;;;;;;5034482;28;20452;-80
2023/10/08 14:22:21;;;;;;;5.57;1.83;;;;;;;;;;5033769;28;20810;-80
2023/10/08 14:24:58;;;;;;;7.43;2.20;;;;;;;;;;5036715;28;20476;-80
2023/10/08 14:27:31;;;;;;;7.83;2.60;;;;;;;;;;5038932;28;20496;-80
2023/10/08 14:30:00;;;;;;;5.70;4.13;;;;;;;;;;5039183;28;20475;-80
2023/10/08 14:32:27;;;;;;;5.00;2.53;;;;;;;;;;5036470;28;20518;-80
2023/10/08 14:43:11;;;;;;;3.33;1.83;;;;;;;;;;5037335;28;20514;-80
2023/10/08 14:45:40;;;;;;;5.73;1.97;;;;;;;;;;5037347;28;20841;-82
2023/10/08 14:48:11;;;;;;;4.50;2.03;;;;;;;;;;5034882;28;20478;-79
2023/10/08 14:50:38;;;;;;;6.40;2.30;;;;;;;;;;5036567;28;20449;-80
2023/10/08 14:53:05;;;;;;;4.80;1.90;;;;;;;;;;5037069;28;20479;-79
2023/10/08 14:55:34;;;;;;;6.43;1.90;;;;;;;;;;5037525;28;20468;-79
2023/10/08 14:58:07;;;;;;;4.60;2.07;;;;;;;;;;5036428;28;20469;-80
2023/10/08 15:00:35;;;;;;;4.87;1.97;;;;;;;;;;5036382;28;20476;-79
2023/10/08 15:03:02;;;;;;;7.90;2.50;;;;;;;;;;5036678;28;20522;-79
2023/10/08 15:05:30;;;;;;;8.50;1.90;;;;;;;;;;5037466;28;20477;-80
2023/10/08 15:07:58;;;;;;;7.70;2.80;;;;;;;;;;5037131;28;20469;-79
2023/10/08 15:10:25;;;;;;;5.30;1.67;;;;;;;;;;5037437;28;20440;-79
2023/10/08 15:12:53;;;;;;;4.73;1.57;;;;;;;;;;5036220;28;20841;-80
2023/10/08 15:15:19;;;;;;;8.20;2.07;;;;;;;;;;5037221;28;20499;-79
2023/10/08 15:17:46;;;;;;;6.37;1.90;;;;;;;;;;5036062;28;20468;-80